sensor_id;sensor_type;location;lat;lon;timestamp;pressure;altitude;pressure_sealevel;temperature;humidity
48652;BME280;34442;52.362;-1.302;2023-08-12T00:01:42;100120.28;;;20.20;85.40
48652;BME280;34442;52.362;-1.302;2023-08-12T00:04:07;100114.03;;;20.14;85.58
48652;BME280;34442;52.362;-1.302;2023-08-12T00:06:33;100114.03;;;20.09;85.51
48652;BME280;34442;52.362;-1.302;2023-08-12T00:08:58;100112.69;;;20.06;85.66
48652;BME280;34442;52.362;-1.302;2023-08-12T00:11:23;100113.78;;;20.05;85.68
48652;BME280;34442;52.362;-1.302;2023-08-12T00:13:49;100108.06;;;20.02;86.17
48652;BME280;34442;52.362;-1.302;2023-08-12T00:16:14;100102.06;;;19.95;86.32
48652;BME280;34442;52.362;-1.302;2023-08-12T00:18:40;100098.78;;;19.93;86.39
48652;BME280;34442;52.362;-1.302;2023-08-12T00:21:09;100096.06;;;19.93;86.44
48652;BME280;34442;52.362;-1.302;2023-08-12T00:23:39;100093.59;;;19.91;86.57
48652;BME280;34442;52.362;-1.302;2023-08-12T00:26:09;100093.09;;;19.84;86.41
48652;BME280;34442;52.362;-1.302;2023-08-12T00:28:36;100092.81;;;19.75;87.32
48652;BME280;34442;52.362;-1.302;2023-08-12T00:31:02;100092.25;;;19.73;87.45
48652;BME280;34442;52.362;-1.302;2023-08-12T00:33:27;100090.09;;;19.75;87.15
48652;BME280;34442;52.362;-1.302;2023-08-12T00:35:53;100091.16;;;19.74;87.42
48652;BME280;34442;52.362;-1.302;2023-08-12T00:38:19;100085.72;;;19.69;87.69
48652;BME280;34442;52.362;-1.302;2023-08-12T00:40:44;100083.00;;;19.64;87.64
48652;BME280;34442;52.362;-1.302;2023-08-12T00:43:09;100092.00;;;19.65;87.92
48652;BME280;34442;52.362;-1.302;2023-08-12T00:45:35;100088.47;;;19.64;88.22
48652;BME280;34442;52.362;-1.302;2023-08-12T00:48:02;100076.75;;;19.64;87.96
48652;BME280;34442;52.362;-1.302;2023-08-12T00:50:28;100075.06;;;19.63;88.20
48652;BME280;34442;52.362;-1.302;2023-08-12T00:52:54;100068.00;;;19.62;88.60
48652;BME280;34442;52.362;-1.302;2023-08-12T00:55:20;100066.09;;;19.62;88.35
48652;BME280;34442;52.362;-1.302;2023-08-12T00:57:46;100057.34;;;19.55;88.79
48652;BME280;34442;52.362;-1.302;2023-08-12T01:00:12;100059.25;;;19.49;89.66
48652;BME280;34442;52.362;-1.302;2023-08-12T01:02:38;100057.34;;;19.45;89.63
48652;BME280;34442;52.362;-1.302;2023-08-12T01:05:04;100057.88;;;19.42;90.13
48652;BME280;34442;52.362;-1.302;2023-08-12T01:07:30;100056.25;;;19.36;91.02
48652;BME280;34442;52.362;-1.302;2023-08-12T01:09:56;100058.44;;;19.33;91.82
48652;BME280;34442;52.362;-1.302;2023-08-12T01:12:30;100057.34;;;19.29;93.95
48652;BME280;34442;52.362;-1.302;2023-08-12T01:15:11;100056.53;;;19.29;93.97
48652;BME280;34442;52.362;-1.302;2023-08-12T01:17:41;100051.06;;;19.29;93.02
48652;BME280;34442;52.362;-1.302;2023-08-12T01:20:08;100057.34;;;19.24;93.79
48652;BME280;34442;52.362;-1.302;2023-08-12T01:22:36;100052.97;;;19.13;95.13
48652;BME280;34442;52.362;-1.302;2023-08-12T01:25:05;100042.34;;;19.17;95.04
48652;BME280;34442;52.362;-1.302;2023-08-12T01:27:30;100055.69;;;19.13;95.81
48652;BME280;34442;52.362;-1.302;2023-08-12T01:29:56;100054.06;;;19.12;96.02
48652;BME280;34442;52.362;-1.302;2023-08-12T01:32:34;100056.78;;;19.12;98.45
48652;BME280;34442;52.362;-1.302;2023-08-12T01:37:35;100050.25;;;19.08;97.32
48652;BME280;34442;52.362;-1.302;2023-08-12T01:40:02;100052.72;;;19.09;97.32
48652;BME280;34442;52.362;-1.302;2023-08-12T01:42:34;100056.22;;;19.00;98.76
48652;BME280;34442;52.362;-1.302;2023-08-12T01:45:00;100051.31;;;18.97;98.89
48652;BME280;34442;52.362;-1.302;2023-08-12T01:47:27;100046.44;;;18.89;99.49
48652;BME280;34442;52.362;-1.302;2023-08-12T01:49:52;100040.13;;;18.88;99.49
48652;BME280;34442;52.362;-1.302;2023-08-12T01:52:18;100041.50;;;18.80;100.00
48652;BME280;34442;52.362;-1.302;2023-08-12T01:54:43;100040.94;;;18.78;100.00
48652;BME280;34442;52.362;-1.302;2023-08-12T01:57:08;100036.03;;;18.75;100.00
48652;BME280;34442;52.362;-1.302;2023-08-12T01:59:35;100028.41;;;18.77;100.00
48652;BME280;34442;52.362;-1.302;2023-08-12T02:02:01;100025.13;;;18.75;100.00
48652;BME280;34442;52.362;-1.302;2023-08-12T02:04:27;100025.13;;;18.70;100.00
48652;BME280;34442;52.362;-1.302;2023-08-12T02:06:53;100022.13;;;18.72;100.00
48652;BME280;34442;52.362;-1.302;2023-08-12T02:09:18;100028.34;;;18.67;100.00
48652;BME280;34442;52.362;-1.302;2023-08-12T02:11:44;100021.59;;;18.70;100.00
48652;BME280;34442;52.362;-1.302;2023-08-12T02:14:09;100022.66;;;18.69;100.00
48652;BME280;34442;52.362;-1.302;2023-08-12T02:16:35;100006.03;;;18.65;100.00
48652;BME280;34442;52.362;-1.302;2023-08-12T02:19:00;100008.94;;;18.43;100.00
48652;BME280;34442;52.362;-1.302;2023-08-12T02:21:25;100004.94;;;18.56;100.00
48652;BME280;34442;52.362;-1.302;2023-08-12T02:23:51;100014.16;;;18.55;100.00
48652;BME280;34442;52.362;-1.302;2023-08-12T02:26:16;100006.56;;;18.57;100.00
48652;BME280;34442;52.362;-1.302;2023-08-12T02:28:41;100006.28;;;18.53;100.00
48652;BME280;34442;52.362;-1.302;2023-08-12T02:31:07;100006.00;;;18.50;100.00
48652;BME280;34442;52.362;-1.302;2023-08-12T02:33:32;100003.78;;;18.47;100.00
48652;BME280;34442;52.362;-1.302;2023-08-12T02:35:58;100003.25;;;18.45;100.00
48652;BME280;34442;52.362;-1.302;2023-08-12T02:38:23;100000.25;;;18.41;100.00
48652;BME280;34442;52.362;-1.302;2023-08-12T02:40:49;100003.50;;;18.38;100.00
48652;BME280;34442;52.362;-1.302;2023-08-12T02:43:15;99990.97;;;18.32;100.00
48652;BME280;34442;52.362;-1.302;2023-08-12T02:45:40;100000.19;;;18.31;100.00
48652;BME280;34442;52.362;-1.302;2023-08-12T02:48:06;99998.56;;;18.25;100.00
48652;BME280;34442;52.362;-1.302;2023-08-12T02:50:31;100002.91;;;18.21;100.00
48652;BME280;34442;52.362;-1.302;2023-08-12T02:52:56;99999.28;;;18.05;100.00
48652;BME280;34442;52.362;-1.302;2023-08-12T02:55:22;99991.19;;;18.20;100.00
48652;BME280;34442;52.362;-1.302;2023-08-12T02:57:48;99994.97;;;18.14;100.00
48652;BME280;34442;52.362;-1.302;2023-08-12T03:00:13;99988.47;;;18.20;100.00
48652;BME280;34442;52.362;-1.302;2023-08-12T03:02:42;99987.66;;;18.15;100.00
48652;BME280;34442;52.362;-1.302;2023-08-12T03:05:08;99978.63;;;18.09;100.00
48652;BME280;34442;52.362;-1.302;2023-08-12T03:07:33;99977.81;;;18.08;100.00
48652;BME280;34442;52.362;-1.302;2023-08-12T03:09:59;99980.81;;;18.12;100.00
48652;BME280;34442;52.362;-1.302;2023-08-12T03:12:24;99979.44;;;18.09;100.00
48652;BME280;34442;52.362;-1.302;2023-08-12T03:14:50;99985.16;;;18.08;100.00
48652;BME280;34442;52.362;-1.302;2023-08-12T03:17:15;99982.97;;;18.05;100.00
48652;BME280;34442;52.362;-1.302;2023-08-12T03:19:41;99981.06;;;18.05;100.00
48652;BME280;34442;52.362;-1.302;2023-08-12T03:22:07;99984.88;;;18.09;100.00
48652;BME280;34442;52.362;-1.302;2023-08-12T03:24:32;99981.34;;;18.04;100.00
48652;BME280;34442;52.362;-1.302;2023-08-12T03:26:58;99967.13;;;17.92;100.00
48652;BME280;34442;52.362;-1.302;2023-08-12T03:29:24;99962.22;;;17.89;100.00
48652;BME280;34442;52.362;-1.302;2023-08-12T03:31:49;99964.66;;;17.43;100.00
48652;BME280;34442;52.362;-1.302;2023-08-12T03:34:15;99961.38;;;17.78;100.00
48652;BME280;34442;52.362;-1.302;2023-08-12T03:36:40;99958.91;;;17.81;100.00
48652;BME280;34442;52.362;-1.302;2023-08-12T03:39:06;99963.56;;;17.39;100.00
48652;BME280;34442;52.362;-1.302;2023-08-12T03:41:31;99954.06;;;17.89;100.00
48652;BME280;34442;52.362;-1.302;2023-08-12T03:43:57;99957.31;;;17.85;100.00
48652;BME280;34442;52.362;-1.302;2023-08-12T03:46:22;99953.75;;;17.80;100.00
48652;BME280;34442;52.362;-1.302;2023-08-12T03:48:47;99952.13;;;17.79;100.00
48652;BME280;34442;52.362;-1.302;2023-08-12T03:51:13;99947.50;;;17.79;100.00
48652;BME280;34442;52.362;-1.302;2023-08-12T03:53:38;99950.56;;;17.46;100.00
48652;BME280;34442;52.362;-1.302;2023-08-12T03:56:04;99961.56;;;17.66;100.00
48652;BME280;34442;52.362;-1.302;2023-08-12T03:58:29;99948.84;;;17.77;100.00
48652;BME280;34442;52.362;-1.302;2023-08-12T04:00:55;99948.50;;;17.73;100.00
48652;BME280;34442;52.362;-1.302;2023-08-12T04:03:20;99946.84;;;17.62;100.00
48652;BME280;34442;52.362;-1.302;2023-08-12T04:05:52;99948.03;;;17.76;100.00
48652;BME280;34442;52.362;-1.302;2023-08-12T04:08:19;99944.94;;;17.63;100.00
48652;BME280;34442;52.362;-1.302;2023-08-12T04:10:48;99942.22;;;17.63;100.00
48652;BME280;34442;52.362;-1.302;2023-08-12T04:13:14;99944.63;;;17.54;100.00
48652;BME280;34442;52.362;-1.302;2023-08-12T04:15:40;99932.97;;;17.58;100.00
48652;BME280;34442;52.362;-1.302;2023-08-12T04:18:06;99930.53;;;17.62;100.00
48652;BME280;34442;52.362;-1.302;2023-08-12T04:20:31;99934.38;;;17.66;100.00
48652;BME280;34442;52.362;-1.302;2023-08-12T04:22:57;99934.16;;;17.30;100.00
48652;BME280;34442;52.362;-1.302;2023-08-12T04:25:23;99940.34;;;16.83;100.00
48652;BME280;34442;52.362;-1.302;2023-08-12T04:27:49;99945.78;;;17.21;100.00
48652;BME280;34442;52.362;-1.302;2023-08-12T04:30:18;99937.78;;;17.46;100.00
48652;BME280;34442;52.362;-1.302;2023-08-12T04:32:43;99938.09;;;17.50;100.00
48652;BME280;34442;52.362;-1.302;2023-08-12T04:35:11;99935.38;;;17.50;100.00
48652;BME280;34442;52.362;-1.302;2023-08-12T04:37:40;99939.41;;;17.47;100.00
48652;BME280;34442;52.362;-1.302;2023-08-12T04:40:06;99929.63;;;17.46;100.00
48652;BME280;34442;52.362;-1.302;2023-08-12T04:42:33;99928.84;;;17.51;100.00
48652;BME280;34442;52.362;-1.302;2023-08-12T04:44:58;99933.75;;;17.49;100.00
48652;BME280;34442;52.362;-1.302;2023-08-12T04:47:24;99928.31;;;17.49;100.00
48652;BME280;34442;52.362;-1.302;2023-08-12T04:49:49;99924.75;;;17.48;100.00
48652;BME280;34442;52.362;-1.302;2023-08-12T04:52:15;99928.25;;;17.44;100.00
48652;BME280;34442;52.362;-1.302;2023-08-12T04:54:40;99929.03;;;17.34;100.00
48652;BME280;34442;52.362;-1.302;2023-08-12T04:57:09;99931.47;;;17.35;100.00
48652;BME280;34442;52.362;-1.302;2023-08-12T04:59:35;99922.78;;;17.39;100.00
48652;BME280;34442;52.362;-1.302;2023-08-12T05:02:01;99922.78;;;17.39;100.00
48652;BME280;34442;52.362;-1.302;2023-08-12T05:04:26;99920.41;;;17.52;100.00
48652;BME280;34442;52.362;-1.302;2023-08-12T05:06:51;99919.06;;;17.55;100.00
48652;BME280;34442;52.362;-1.302;2023-08-12T05:09:20;99913.38;;;17.56;100.00
48652;BME280;34442;52.362;-1.302;2023-08-12T05:11:45;99907.69;;;17.63;100.00
48652;BME280;34442;52.362;-1.302;2023-08-12T05:14:11;99906.06;;;17.57;100.00
48652;BME280;34442;52.362;-1.302;2023-08-12T05:16:36;99907.69;;;17.58;100.00
48652;BME280;34442;52.362;-1.302;2023-08-12T05:19:01;99915.28;;;17.56;100.00
48652;BME280;34442;52.362;-1.302;2023-08-12T05:21:27;99913.38;;;17.09;100.00
48652;BME280;34442;52.362;-1.302;2023-08-12T05:23:52;99910.66;;;17.56;100.00
48652;BME280;34442;52.362;-1.302;2023-08-12T05:26:17;99911.50;;;17.57;100.00
48652;BME280;34442;52.362;-1.302;2023-08-12T05:28:43;99906.91;;;17.68;100.00
48652;BME280;34442;52.362;-1.302;2023-08-12T05:31:08;99906.44;;;17.76;100.00
48652;BME280;34442;52.362;-1.302;2023-08-12T05:33:34;99902.56;;;17.67;100.00
48652;BME280;34442;52.362;-1.302;2023-08-12T05:35:59;99901.00;;;17.76;100.00
48652;BME280;34442;52.362;-1.302;2023-08-12T05:38:25;99907.00;;;17.78;100.00
48652;BME280;34442;52.362;-1.302;2023-08-12T05:40:50;99909.44;;;17.79;100.00
48652;BME280;34442;52.362;-1.302;2023-08-12T05:43:16;99917.59;;;17.84;100.00
48652;BME280;34442;52.362;-1.302;2023-08-12T05:45:41;99908.34;;;17.85;100.00
48652;BME280;34442;52.362;-1.302;2023-08-12T05:48:07;99898.06;;;17.93;100.00
48652;BME280;34442;52.362;-1.302;2023-08-12T05:50:33;99897.94;;;17.67;100.00
48652;BME280;34442;52.362;-1.302;2023-08-12T05:52:58;99905.56;;;17.70;100.00
48652;BME280;34442;52.362;-1.302;2023-08-12T05:55:24;99905.00;;;17.73;100.00
48652;BME280;34442;52.362;-1.302;2023-08-12T05:57:49;99899.09;;;17.76;100.00
48652;BME280;34442;52.362;-1.302;2023-08-12T06:00:14;99898.06;;;17.88;100.00
48652;BME280;34442;52.362;-1.302;2023-08-12T06:02:40;99895.84;;;17.84;100.00
48652;BME280;34442;52.362;-1.302;2023-08-12T06:05:06;99897.59;;;18.11;100.00
48652;BME280;34442;52.362;-1.302;2023-08-12T06:07:31;99897.34;;;18.38;100.00
48652;BME280;34442;52.362;-1.302;2023-08-12T06:09:56;99887.31;;;18.44;100.00
48652;BME280;34442;52.362;-1.302;2023-08-12T06:12:22;99892.75;;;18.49;100.00
48652;BME280;34442;52.362;-1.302;2023-08-12T06:14:47;99889.47;;;18.42;100.00
48652;BME280;34442;52.362;-1.302;2023-08-12T06:17:13;99897.91;;;18.50;100.00
48652;BME280;34442;52.362;-1.302;2023-08-12T06:19:38;99887.84;;;18.46;100.00
48652;BME280;34442;52.362;-1.302;2023-08-12T06:22:04;99898.72;;;18.46;100.00
48652;BME280;34442;52.362;-1.302;2023-08-12T06:24:29;99889.47;;;18.47;100.00
48652;BME280;34442;52.362;-1.302;2023-08-12T06:26:54;99900.91;;;18.49;100.00
48652;BME280;34442;52.362;-1.302;2023-08-12T06:29:20;99898.47;;;18.52;100.00
48652;BME280;34442;52.362;-1.302;2023-08-12T06:31:45;99897.38;;;18.53;100.00
48652;BME280;34442;52.362;-1.302;2023-08-12T06:34:11;99900.91;;;18.54;100.00
48652;BME280;34442;52.362;-1.302;2023-08-12T06:36:36;99897.38;;;18.64;100.00
48652;BME280;34442;52.362;-1.302;2023-08-12T06:39:02;99900.38;;;18.67;100.00
48652;BME280;34442;52.362;-1.302;2023-08-12T06:41:28;99912.41;;;18.81;100.00
48652;BME280;34442;52.362;-1.302;2023-08-12T06:43:54;99897.16;;;18.80;100.00
48652;BME280;34442;52.362;-1.302;2023-08-12T06:46:19;99907.47;;;18.99;100.00
48652;BME280;34442;52.362;-1.302;2023-08-12T06:48:45;99906.38;;;19.10;100.00
48652;BME280;34442;52.362;-1.302;2023-08-12T06:51:10;99900.13;;;18.94;100.00
48652;BME280;34442;52.362;-1.302;2023-08-12T06:53:37;99904.19;;;18.97;100.00
48652;BME280;34442;52.362;-1.302;2023-08-12T06:56:03;99894.94;;;18.88;100.00
48652;BME280;34442;52.362;-1.302;2023-08-12T06:58:28;99899.31;;;18.94;100.00
48652;BME280;34442;52.362;-1.302;2023-08-12T07:00:54;99895.78;;;18.98;100.00
48652;BME280;34442;52.362;-1.302;2023-08-12T07:03:19;99895.22;;;19.06;100.00
48652;BME280;34442;52.362;-1.302;2023-08-12T07:05:45;99889.22;;;19.04;100.00
48652;BME280;34442;52.362;-1.302;2023-08-12T07:08:10;99900.41;;;18.98;100.00
48652;BME280;34442;52.362;-1.302;2023-08-12T07:10:39;99888.09;;;18.24;100.00
48652;BME280;34442;52.362;-1.302;2023-08-12T07:13:05;99889.44;;;18.16;100.00
48652;BME280;34442;52.362;-1.302;2023-08-12T07:15:30;99893.00;;;18.68;100.00
48652;BME280;34442;52.362;-1.302;2023-08-12T07:17:55;99887.88;;;19.02;100.00
48652;BME280;34442;52.362;-1.302;2023-08-12T07:20:23;99896.81;;;19.23;100.00
48652;BME280;34442;52.362;-1.302;2023-08-12T07:22:49;99890.25;;;19.39;100.00
48652;BME280;34442;52.362;-1.302;2023-08-12T07:25:17;99892.66;;;19.61;100.00
48652;BME280;34442;52.362;-1.302;2023-08-12T07:27:42;99890.66;;;19.82;100.00
48652;BME280;34442;52.362;-1.302;2023-08-12T07:30:08;99889.41;;;19.44;100.00
48652;BME280;34442;52.362;-1.302;2023-08-12T07:32:36;99892.19;;;19.13;100.00
48652;BME280;34442;52.362;-1.302;2023-08-12T07:35:03;99889.94;;;19.51;100.00
48652;BME280;34442;52.362;-1.302;2023-08-12T07:37:28;99891.00;;;19.65;100.00
48652;BME280;34442;52.362;-1.302;2023-08-12T07:39:54;99883.03;;;19.74;100.00
48652;BME280;34442;52.362;-1.302;2023-08-12T07:42:19;99892.06;;;19.69;100.00
48652;BME280;34442;52.362;-1.302;2023-08-12T07:44:46;99878.47;;;19.59;100.00
48652;BME280;34442;52.362;-1.302;2023-08-12T07:47:11;99879.28;;;19.65;100.00
48652;BME280;34442;52.362;-1.302;2023-08-12T07:49:38;99881.72;;;19.66;100.00
48652;BME280;34442;52.362;-1.302;2023-08-12T07:52:03;99874.06;;;19.73;100.00
48652;BME280;34442;52.362;-1.302;2023-08-12T07:54:29;99875.72;;;19.69;100.00
48652;BME280;34442;52.362;-1.302;2023-08-12T07:56:54;99873.22;;;19.78;100.00
48652;BME280;34442;52.362;-1.302;2023-08-12T07:59:20;99867.09;;;20.01;100.00
48652;BME280;34442;52.362;-1.302;2023-08-12T08:01:45;99866.72;;;20.18;100.00
48652;BME280;34442;52.362;-1.302;2023-08-12T08:04:11;99862.25;;;20.32;100.00
48652;BME280;34442;52.362;-1.302;2023-08-12T08:06:36;99869.63;;;20.32;100.00
48652;BME280;34442;52.362;-1.302;2023-08-12T08:09:02;99873.91;;;20.43;100.00
48652;BME280;34442;52.362;-1.302;2023-08-12T08:11:30;99864.75;;;20.29;100.00
48652;BME280;34442;52.362;-1.302;2023-08-12T08:13:57;99867.53;;;20.19;100.00
48652;BME280;34442;52.362;-1.302;2023-08-12T08:16:23;99870.03;;;20.10;100.00
48652;BME280;34442;52.362;-1.302;2023-08-12T08:18:48;99868.06;;;19.71;100.00
48652;BME280;34442;52.362;-1.302;2023-08-12T08:21:14;99876.59;;;19.44;100.00
48652;BME280;34442;52.362;-1.302;2023-08-12T08:23:40;99879.53;;;19.58;100.00
48652;BME280;34442;52.362;-1.302;2023-08-12T08:26:07;99874.88;;;19.69;100.00
48652;BME280;34442;52.362;-1.302;2023-08-12T08:28:32;99871.53;;;19.92;100.00
48652;BME280;34442;52.362;-1.302;2023-08-12T08:30:58;99866.31;;;19.96;100.00
48652;BME280;34442;52.362;-1.302;2023-08-12T08:33:25;99871.19;;;20.04;100.00
48652;BME280;34442;52.362;-1.302;2023-08-12T08:35:51;99864.06;;;20.08;100.00
48652;BME280;34442;52.362;-1.302;2023-08-12T08:38:19;99862.69;;;20.05;100.00
48652;BME280;34442;52.362;-1.302;2023-08-12T08:40:45;99857.75;;;20.07;100.00
48652;BME280;34442;52.362;-1.302;2023-08-12T08:43:12;99864.25;;;20.22;100.00
48652;BME280;34442;52.362;-1.302;2023-08-12T08:45:41;99856.69;;;20.08;100.00
48652;BME280;34442;52.362;-1.302;2023-08-12T08:48:07;99871.06;;;20.24;100.00
48652;BME280;34442;52.362;-1.302;2023-08-12T08:50:33;99865.00;;;20.27;100.00
48652;BME280;34442;52.362;-1.302;2023-08-12T08:52:59;99866.72;;;20.18;100.00
48652;BME280;34442;52.362;-1.302;2023-08-12T08:55:26;99865.13;;;20.12;100.00
48652;BME280;34442;52.362;-1.302;2023-08-12T08:57:52;99863.13;;;20.23;100.00
48652;BME280;34442;52.362;-1.302;2023-08-12T09:00:18;99858.19;;;20.30;100.00
48652;BME280;34442;52.362;-1.302;2023-08-12T09:02:45;99878.63;;;20.32;100.00
48652;BME280;34442;52.362;-1.302;2023-08-12T09:05:14;99873.75;;;20.29;100.00
48652;BME280;34442;52.362;-1.302;2023-08-12T09:07:41;99870.25;;;20.19;100.00
48652;BME280;34442;52.362;-1.302;2023-08-12T09:10:07;99872.78;;;20.10;100.00
48652;BME280;34442;52.362;-1.302;2023-08-12T09:12:33;99871.81;;;20.30;100.00
48652;BME280;34442;52.362;-1.302;2023-08-12T09:14:59;99873.06;;;20.48;100.00
48652;BME280;34442;52.362;-1.302;2023-08-12T09:17:25;99877.63;;;20.63;100.00
48652;BME280;34442;52.362;-1.302;2023-08-12T09:19:50;99865.78;;;20.72;100.00
48652;BME280;34442;52.362;-1.302;2023-08-12T09:22:17;99859.63;;;20.62;100.00
48652;BME280;34442;52.362;-1.302;2023-08-12T09:24:43;99865.88;;;20.62;100.00
48652;BME280;34442;52.362;-1.302;2023-08-12T09:27:08;99857.88;;;20.71;100.00
48652;BME280;34442;52.362;-1.302;2023-08-12T09:29:34;99846.41;;;20.98;100.00
48652;BME280;34442;52.362;-1.302;2023-08-12T09:32:18;99852.53;;;21.14;100.00
48652;BME280;34442;52.362;-1.302;2023-08-12T09:35:02;99835.50;;;21.22;100.00
48652;BME280;34442;52.362;-1.302;2023-08-12T09:37:29;99833.75;;;21.36;99.84
48652;BME280;34442;52.362;-1.302;2023-08-12T09:39:54;99838.34;;;21.41;99.72
48652;BME280;34442;52.362;-1.302;2023-08-12T09:42:21;99846.47;;;21.89;98.26
48652;BME280;34442;52.362;-1.302;2023-08-12T09:44:50;99835.63;;;22.21;97.03
48652;BME280;34442;52.362;-1.302;2023-08-12T09:47:15;99838.22;;;22.32;96.88
48652;BME280;34442;52.362;-1.302;2023-08-12T09:49:41;99826.66;;;22.35;97.03
48652;BME280;34442;52.362;-1.302;2023-08-12T09:52:07;99833.53;;;22.13;97.89
48652;BME280;34442;52.362;-1.302;2023-08-12T09:54:36;99833.00;;;21.92;98.46
48652;BME280;34442;52.362;-1.302;2023-08-12T09:57:04;99829.50;;;21.68;99.11
48652;BME280;34442;52.362;-1.302;2023-08-12T09:59:33;99827.97;;;21.62;99.72
48652;BME280;34442;52.362;-1.302;2023-08-12T10:01:59;99831.44;;;21.67;99.20
48652;BME280;34442;52.362;-1.302;2023-08-12T10:04:35;99826.53;;;21.45;98.62
48652;BME280;34442;52.362;-1.302;2023-08-12T10:07:02;99820.97;;;21.26;99.56
48652;BME280;34442;52.362;-1.302;2023-08-12T10:09:30;99840.00;;;21.13;99.42
48652;BME280;34442;52.362;-1.302;2023-08-12T10:11:56;99847.44;;;21.07;99.72
48652;BME280;34442;52.362;-1.302;2023-08-12T10:14:22;99842.53;;;21.33;99.04
48652;BME280;34442;52.362;-1.302;2023-08-12T10:16:49;99836.00;;;21.72;97.14
48652;BME280;34442;52.362;-1.302;2023-08-12T10:19:16;99840.63;;;21.95;96.22
48652;BME280;34442;52.362;-1.302;2023-08-12T10:21:43;99832.66;;;21.99;95.93
48652;BME280;34442;52.362;-1.302;2023-08-12T10:24:10;99824.56;;;21.89;96.26
48652;BME280;34442;52.362;-1.302;2023-08-12T10:26:37;99824.50;;;21.75;97.08
48652;BME280;34442;52.362;-1.302;2023-08-12T10:29:03;99825.69;;;21.69;96.99
48652;BME280;34442;52.362;-1.302;2023-08-12T10:31:29;99825.50;;;21.60;97.30
48652;BME280;34442;52.362;-1.302;2023-08-12T10:33:57;99816.06;;;21.71;97.06
48652;BME280;34442;52.362;-1.302;2023-08-12T10:36:23;99819.97;;;21.84;96.55
48652;BME280;34442;52.362;-1.302;2023-08-12T10:38:48;99823.75;;;21.88;96.10
48652;BME280;34442;52.362;-1.302;2023-08-12T10:41:24;99816.19;;;21.80;94.59
48652;BME280;34442;52.362;-1.302;2023-08-12T10:43:59;99823.09;;;21.77;95.82
48652;BME280;34442;52.362;-1.302;2023-08-12T10:52:01;99798.97;;;21.79;94.54
48652;BME280;34442;52.362;-1.302;2023-08-12T10:54:28;99808.91;;;22.13;94.20
48652;BME280;34442;52.362;-1.302;2023-08-12T10:59:47;99806.75;;;22.29;90.38
48652;BME280;34442;52.362;-1.302;2023-08-12T11:02:19;99813.59;;;22.45;92.17
48652;BME280;34442;52.362;-1.302;2023-08-12T11:04:56;99804.69;;;22.53;91.22
48652;BME280;34442;52.362;-1.302;2023-08-12T11:07:46;99805.78;;;22.85;87.47
48652;BME280;34442;52.362;-1.302;2023-08-12T11:10:21;99803.16;;;22.80;89.21
48652;BME280;34442;52.362;-1.302;2023-08-12T11:18:01;99795.50;;;22.31;90.78
48652;BME280;34442;52.362;-1.302;2023-08-12T11:20:28;99804.00;;;22.29;90.56
48652;BME280;34442;52.362;-1.302;2023-08-12T11:22:54;99810.91;;;22.26;90.98
48652;BME280;34442;52.362;-1.302;2023-08-12T11:25:20;99803.72;;;22.31;90.69
48652;BME280;34442;52.362;-1.302;2023-08-12T11:27:47;99804.00;;;22.29;90.74
48652;BME280;34442;52.362;-1.302;2023-08-12T11:30:14;99800.22;;;22.25;90.26
48652;BME280;34442;52.362;-1.302;2023-08-12T11:32:42;99800.97;;;22.12;90.34
48652;BME280;34442;52.362;-1.302;2023-08-12T11:35:08;99800.38;;;21.96;91.04
48652;BME280;34442;52.362;-1.302;2023-08-12T11:37:38;99794.69;;;22.11;89.38
48652;BME280;34442;52.362;-1.302;2023-08-12T11:40:05;99795.41;;;22.36;88.95
48652;BME280;34442;52.362;-1.302;2023-08-12T11:42:32;99798.25;;;22.63;87.49
48652;BME280;34442;52.362;-1.302;2023-08-12T11:44:58;99793.25;;;22.98;86.34
48652;BME280;34442;52.362;-1.302;2023-08-12T11:47:23;99785.31;;;23.24;85.56
48652;BME280;34442;52.362;-1.302;2023-08-12T11:49:48;99789.00;;;23.33;84.87
48652;BME280;34442;52.362;-1.302;2023-08-12T11:52:14;99778.50;;;23.35;85.00
48652;BME280;34442;52.362;-1.302;2023-08-12T11:54:40;99776.78;;;23.25;85.26
48652;BME280;34442;52.362;-1.302;2023-08-12T11:57:05;99772.72;;;23.23;85.77
48652;BME280;34442;52.362;-1.302;2023-08-12T11:59:31;99770.53;;;23.61;84.64
48652;BME280;34442;52.362;-1.302;2023-08-12T12:01:57;99777.88;;;23.52;85.04
48652;BME280;34442;52.362;-1.302;2023-08-12T12:04:22;99777.91;;;23.24;85.88
48652;BME280;34442;52.362;-1.302;2023-08-12T12:06:48;99770.00;;;23.09;86.21
48652;BME280;34442;52.362;-1.302;2023-08-12T12:09:17;99788.88;;;22.97;86.71
48652;BME280;34442;52.362;-1.302;2023-08-12T12:11:44;99780.91;;;22.82;87.09
48652;BME280;34442;52.362;-1.302;2023-08-12T12:14:10;99792.19;;;22.80;86.71
48652;BME280;34442;52.362;-1.302;2023-08-12T12:16:44;99783.75;;;22.76;84.43
48652;BME280;34442;52.362;-1.302;2023-08-12T12:19:15;99775.78;;;22.94;85.04
48652;BME280;34442;52.362;-1.302;2023-08-12T12:21:41;99768.25;;;22.99;85.18
48652;BME280;34442;52.362;-1.302;2023-08-12T12:24:10;99773.13;;;23.16;84.88
48652;BME280;34442;52.362;-1.302;2023-08-12T12:26:36;99761.84;;;23.45;84.23
48652;BME280;34442;52.362;-1.302;2023-08-12T12:29:05;99758.78;;;23.47;83.17
48652;BME280;34442;52.362;-1.302;2023-08-12T12:31:35;99761.94;;;23.40;83.02
48652;BME280;34442;52.362;-1.302;2023-08-12T12:34:05;99777.50;;;23.17;83.71
48652;BME280;34442;52.362;-1.302;2023-08-12T12:36:34;99789.56;;;22.89;84.96
48652;BME280;34442;52.362;-1.302;2023-08-12T12:39:00;99794.94;;;22.47;87.92
48652;BME280;34442;52.362;-1.302;2023-08-12T12:41:27;99808.22;;;22.21;89.34
48652;BME280;34442;52.362;-1.302;2023-08-12T12:43:52;99805.06;;;22.14;90.38
48652;BME280;34442;52.362;-1.302;2023-08-12T12:46:18;99806.44;;;22.12;91.09
48652;BME280;34442;52.362;-1.302;2023-08-12T12:48:43;99810.69;;;22.23;90.96
48652;BME280;34442;52.362;-1.302;2023-08-12T12:51:10;99806.41;;;22.49;90.12
48652;BME280;34442;52.362;-1.302;2023-08-12T12:53:36;99813.84;;;22.63;89.84
48652;BME280;34442;52.362;-1.302;2023-08-12T12:56:01;99797.25;;;22.87;89.57